createdAt,value
2023-02-12T00:00:57.692Z,8.18
2023-02-12T00:03:25.462Z,8.05
2023-02-12T00:05:53.483Z,10.68
2023-02-12T00:08:21.366Z,7.38
2023-02-12T00:10:49.222Z,7.05
2023-02-12T00:13:18.306Z,8.57
2023-02-12T00:15:46.432Z,11.75
2023-02-12T00:18:14.235Z,9.05
2023-02-12T00:20:42.049Z,8.85
2023-02-12T00:23:11.352Z,7.10
2023-02-12T00:25:42.530Z,8.05
2023-02-12T00:28:10.434Z,9.88
2023-02-12T00:30:39.775Z,11.98
2023-02-12T00:33:07.471Z,9.68
2023-02-12T00:35:35.291Z,10.18
2023-02-12T00:38:03.116Z,11.15
2023-02-12T00:40:31.355Z,8.85
2023-02-12T00:42:59.204Z,7.57
2023-02-12T00:45:27.133Z,10.00
2023-02-12T00:47:56.191Z,8.07
2023-02-12T00:50:24.394Z,9.30
2023-02-12T00:52:52.166Z,8.27
2023-02-12T00:55:20.359Z,6.65
2023-02-12T00:57:48.409Z,5.80
2023-02-12T01:00:17.201Z,6.93
2023-02-12T01:02:45.067Z,7.63
2023-02-12T01:05:15.476Z,7.43
2023-02-12T01:07:43.249Z,10.23
2023-02-12T01:10:11.399Z,9.68
2023-02-12T01:12:39.150Z,8.73
2023-02-12T01:15:07.447Z,8.18
2023-02-12T01:17:35.229Z,7.50
2023-02-12T01:20:05.754Z,8.85
2023-02-12T01:22:35.212Z,8.02
2023-02-12T01:25:03.073Z,7.72
2023-02-12T01:27:30.935Z,12.07
2023-02-12T01:29:58.639Z,8.80
2023-02-12T01:32:26.504Z,11.00
2023-02-12T01:34:54.375Z,7.03
2023-02-12T01:37:22.143Z,9.02
2023-02-12T01:39:51.195Z,7.75
2023-02-12T01:42:19.684Z,9.82
2023-02-12T01:45:37.315Z,7.57
2023-02-12T01:48:05.846Z,14.50
2023-02-12T01:50:33.676Z,10.40
2023-02-12T01:53:01.456Z,8.68
2023-02-12T01:55:30.713Z,9.10
2023-02-12T01:57:58.445Z,9.13
2023-02-12T02:00:26.854Z,6.93
2023-02-12T02:02:58.570Z,11.65
2023-02-12T02:05:39.180Z,8.80
2023-02-12T02:08:07.035Z,8.73
2023-02-12T02:10:36.191Z,8.93
2023-02-12T02:13:22.120Z,9.85
2023-02-12T02:15:56.036Z,10.88
2023-02-12T02:18:28.169Z,10.48
2023-02-12T02:21:17.642Z,10.15
2023-02-12T02:24:06.811Z,8.77
2023-02-12T02:27:07.102Z,14.50
2023-02-12T02:30:05.525Z,8.63
2023-02-12T02:32:39.751Z,14.73
2023-02-12T02:35:14.024Z,13.35
2023-02-12T02:37:48.994Z,8.05
2023-02-12T02:40:20.888Z,12.45
2023-02-12T02:42:54.870Z,17.10
2023-02-12T02:45:28.154Z,13.50
2023-02-12T02:48:01.412Z,10.68
2023-02-12T02:50:32.566Z,13.48
2023-02-12T02:53:05.706Z,17.50
2023-02-12T02:55:38.900Z,15.45
2023-02-12T02:58:13.169Z,10.63
2023-02-12T03:00:45.349Z,14.15
2023-02-12T03:03:21.989Z,16.02
2023-02-12T03:05:54.272Z,12.02
2023-02-12T03:08:27.838Z,14.75
2023-02-12T03:11:00.918Z,12.88
2023-02-12T03:13:35.564Z,11.52
2023-02-12T03:16:08.018Z,13.48
2023-02-12T03:18:43.501Z,18.67
2023-02-12T03:21:17.039Z,26.50
2023-02-12T03:26:22.595Z,17.75
2023-02-12T03:28:50.452Z,12.90
2023-02-12T03:31:29.859Z,16.92
2023-02-12T03:34:08.316Z,12.70
2023-02-12T03:36:44.283Z,14.38
2023-02-12T03:39:17.762Z,17.55
2023-02-12T03:41:50.553Z,18.48
2023-02-12T03:44:24.974Z,16.98
2023-02-12T03:47:02.398Z,18.80
2023-02-12T03:49:35.659Z,22.58
2023-02-12T03:52:04.670Z,18.42
2023-02-12T03:54:33.287Z,18.95
2023-02-12T03:57:04.845Z,19.58
2023-02-12T03:59:33.347Z,16.75
2023-02-12T04:02:01.471Z,19.73
2023-02-12T04:04:31.377Z,21.75
2023-02-12T04:06:59.724Z,19.52
2023-02-12T04:09:29.925Z,18.48
2023-02-12T04:12:19.070Z,19.73
2023-02-12T04:14:54.071Z,24.13
2023-02-12T04:17:30.919Z,26.08
2023-02-12T04:20:09.851Z,26.95
2023-02-12T04:22:47.395Z,23.20
2023-02-12T04:25:28.736Z,21.20
2023-02-12T04:28:01.720Z,20.13
2023-02-12T04:30:34.955Z,20.63
2023-02-12T04:33:06.068Z,17.52
2023-02-12T04:35:37.838Z,23.85
2023-02-12T04:38:11.695Z,21.48
2023-02-12T04:40:41.408Z,19.48
2023-02-12T04:43:09.760Z,23.95
2023-02-12T04:45:38.898Z,20.42
2023-02-12T04:48:07.521Z,19.77
2023-02-12T04:50:41.732Z,18.75
2023-02-12T04:53:10.458Z,26.33
2023-02-12T04:55:38.502Z,20.83
2023-02-12T04:58:06.904Z,20.42
2023-02-12T05:00:34.832Z,23.38
2023-02-12T05:03:02.909Z,21.27
2023-02-12T05:05:30.781Z,21.50
2023-02-12T05:07:59.952Z,19.83
2023-02-12T05:10:27.841Z,21.52
2023-02-12T05:12:56.731Z,25.33
2023-02-12T05:15:24.742Z,21.27
2023-02-12T05:17:52.573Z,18.42
2023-02-12T05:20:20.467Z,18.42
2023-02-12T05:22:52.979Z,21.45
2023-02-12T05:25:22.754Z,24.00
2023-02-12T05:27:50.551Z,17.08
2023-02-12T05:30:18.757Z,14.60
2023-02-12T05:32:46.585Z,17.58
2023-02-12T05:35:14.356Z,19.00
2023-02-12T05:37:42.126Z,20.95
2023-02-12T05:40:10.859Z,22.75
2023-02-12T05:42:40.042Z,18.48
2023-02-12T05:45:08.626Z,17.58
2023-02-12T05:47:36.458Z,17.23
2023-02-12T05:50:04.301Z,18.15
2023-02-12T05:52:32.101Z,16.63
2023-02-12T05:54:59.931Z,15.98
2023-02-12T05:57:27.646Z,19.88
2023-02-12T05:59:56.796Z,15.77
2023-02-12T06:02:24.568Z,17.95
2023-02-12T06:04:52.455Z,22.00
2023-02-12T06:07:20.200Z,16.23
2023-02-12T06:09:48.232Z,15.00
2023-02-12T06:12:16.065Z,17.17
2023-02-12T06:14:44.080Z,15.05
2023-02-12T06:17:13.313Z,12.65
2023-02-12T06:19:41.077Z,15.57
2023-02-12T06:22:08.862Z,13.77
2023-02-12T06:24:37.213Z,17.25
2023-02-12T06:27:05.112Z,13.38
2023-02-12T06:29:32.942Z,14.82
2023-02-12T06:32:00.697Z,16.33
2023-02-12T06:34:29.997Z,14.40
2023-02-12T06:36:58.136Z,16.35
2023-02-12T06:39:26.035Z,14.40
2023-02-12T06:41:54.531Z,17.30
2023-02-12T06:44:22.348Z,13.90
2023-02-12T06:46:50.318Z,13.70
2023-02-12T06:49:18.127Z,17.27
2023-02-12T06:51:47.310Z,14.93
2023-02-12T06:54:16.446Z,13.55
2023-02-12T06:56:44.261Z,18.75
2023-02-12T06:59:15.696Z,13.90
2023-02-12T07:01:43.968Z,16.60
2023-02-12T07:04:12.221Z,18.63
2023-02-12T07:06:40.197Z,18.67
2023-02-12T07:09:09.299Z,12.40
2023-02-12T07:11:38.729Z,17.38
2023-02-12T07:14:06.828Z,15.23
2023-02-12T07:16:34.740Z,17.98
2023-02-12T07:19:02.484Z,13.90
2023-02-12T07:21:30.759Z,12.73
2023-02-12T07:23:58.515Z,17.23
2023-02-12T07:26:27.618Z,17.42
2023-02-12T07:28:55.322Z,16.25
2023-02-12T07:31:24.848Z,13.32
2023-02-12T07:33:55.201Z,12.77
2023-02-12T07:36:23.583Z,12.57
2023-02-12T07:38:51.572Z,17.33
2023-02-12T07:41:22.240Z,12.50
2023-02-12T07:43:56.178Z,12.20
2023-02-12T07:46:29.727Z,15.40
2023-02-12T07:48:58.684Z,14.15
2023-02-12T07:51:28.780Z,12.02
2023-02-12T07:53:57.038Z,11.73
2023-02-12T07:56:29.574Z,13.48
2023-02-12T07:59:00.857Z,15.50
2023-02-12T08:01:31.087Z,8.68
2023-02-12T08:04:00.590Z,18.60
2023-02-12T08:06:31.245Z,13.55
2023-02-12T08:09:00.957Z,13.02
2023-02-12T08:11:29.829Z,18.52
2023-02-12T08:13:59.977Z,16.35
2023-02-12T08:16:30.387Z,14.88
2023-02-12T08:19:10.495Z,15.60
2023-02-12T08:21:38.723Z,15.32
2023-02-12T08:24:06.924Z,12.02
2023-02-12T08:26:36.825Z,16.60
2023-02-12T08:29:08.040Z,16.83
2023-02-12T08:31:37.618Z,10.75
2023-02-12T08:34:06.453Z,15.15
2023-02-12T08:36:38.432Z,15.68
2023-02-12T08:39:06.364Z,13.07
2023-02-12T08:41:34.217Z,16.15
2023-02-12T08:44:04.075Z,14.52
2023-02-12T08:46:35.556Z,11.63
2023-02-12T08:49:05.708Z,15.70
2023-02-12T08:51:35.875Z,18.60
2023-02-12T08:54:06.943Z,14.93
2023-02-12T08:56:35.924Z,15.85
2023-02-12T08:59:06.342Z,16.35
2023-02-12T09:01:38.996Z,18.80
2023-02-12T09:04:07.135Z,13.15
2023-02-12T09:06:36.695Z,12.27
2023-02-12T09:09:04.783Z,17.73
2023-02-12T09:11:32.592Z,21.55
2023-02-12T09:14:01.686Z,15.50
2023-02-12T09:16:30.826Z,20.70
2023-02-12T09:19:00.483Z,16.48
2023-02-12T09:21:28.372Z,16.95
2023-02-12T09:23:56.200Z,14.48
2023-02-12T09:26:26.723Z,15.98
2023-02-12T09:28:55.346Z,16.08
2023-02-12T09:31:26.670Z,15.60
2023-02-12T09:33:55.665Z,12.57
2023-02-12T09:36:24.881Z,19.25
2023-02-12T09:38:54.163Z,17.45
2023-02-12T09:41:54.084Z,13.80
2023-02-12T09:44:27.752Z,12.73
2023-02-12T09:47:00.717Z,16.85
2023-02-12T09:49:46.698Z,17.10
2023-02-12T09:52:18.212Z,12.30
2023-02-12T09:54:46.393Z,15.77
2023-02-12T09:57:20.255Z,17.02
2023-02-12T09:59:53.739Z,13.00
2023-02-12T10:05:01.139Z,16.67
2023-02-12T10:07:48.946Z,19.38
2023-02-12T10:10:29.413Z,17.45
2023-02-12T10:13:01.372Z,14.18
2023-02-12T10:15:36.400Z,15.32
2023-02-12T10:18:24.896Z,17.13
2023-02-12T10:21:17.269Z,17.95
2023-02-12T10:23:59.280Z,18.75
2023-02-12T10:26:31.357Z,11.65
2023-02-12T10:29:02.440Z,17.52
2023-02-12T10:31:33.296Z,13.77
2023-02-12T10:34:01.089Z,16.48
2023-02-12T10:36:40.786Z,16.15
2023-02-12T10:39:21.202Z,14.45
2023-02-12T10:41:56.130Z,15.48
2023-02-12T10:44:23.880Z,13.43
2023-02-12T10:46:51.715Z,11.57
2023-02-12T10:49:20.807Z,24.00
2023-02-12T10:52:09.627Z,13.18
2023-02-12T10:54:42.032Z,25.60
2023-02-12T10:57:14.526Z,20.17
2023-02-12T10:59:42.995Z,14.77
2023-02-12T11:02:26.818Z,16.13
2023-02-12T11:07:24.180Z,12.40
2023-02-12T11:09:55.039Z,15.57
2023-02-12T11:12:31.663Z,15.63
2023-02-12T11:15:01.858Z,13.18
2023-02-12T11:17:35.138Z,17.85
2023-02-12T11:20:21.397Z,12.57
2023-02-12T11:22:54.945Z,15.52
2023-02-12T11:28:13.642Z,12.18
2023-02-12T11:30:51.326Z,11.48
2023-02-12T11:33:26.081Z,13.85
2023-02-12T11:35:56.945Z,13.82
2023-02-12T11:38:32.515Z,15.15
2023-02-12T11:41:06.079Z,21.73
2023-02-12T11:46:08.545Z,15.05
2023-02-12T11:48:39.365Z,14.90
2023-02-12T11:51:10.532Z,13.55
2023-02-12T11:53:41.579Z,14.40
2023-02-12T11:56:13.117Z,19.17
2023-02-12T11:58:41.691Z,14.35
2023-02-12T12:01:17.426Z,8.45
2023-02-12T12:03:56.272Z,13.02
2023-02-12T12:06:34.057Z,16.13
2023-02-12T12:09:08.017Z,12.63
2023-02-12T12:11:42.656Z,15.15
2023-02-12T12:14:19.168Z,12.90
2023-02-12T12:17:10.934Z,11.65
2023-02-12T12:19:55.713Z,14.95
2023-02-12T12:22:42.845Z,14.25
2023-02-12T12:25:26.179Z,11.95
2023-02-12T12:28:09.201Z,17.35
2023-02-12T12:30:50.620Z,13.43
2023-02-12T12:33:23.246Z,17.50
2023-02-12T12:36:05.664Z,18.70
2023-02-12T12:38:46.231Z,10.43
2023-02-12T12:41:25.601Z,12.70
2023-02-12T12:44:09.389Z,13.18
2023-02-12T12:49:49.265Z,15.07
2023-02-12T12:52:32.949Z,13.98
2023-02-12T12:55:19.456Z,12.95
2023-02-12T12:58:00.444Z,15.68
2023-02-12T13:00:56.929Z,13.85
2023-02-12T13:04:01.280Z,12.23
2023-02-12T13:06:52.705Z,14.90
2023-02-12T13:09:33.374Z,9.70
2023-02-12T13:12:22.498Z,13.18
2023-02-12T13:14:59.700Z,10.50
2023-02-12T13:17:36.884Z,13.50
2023-02-12T13:20:12.515Z,12.95
2023-02-12T13:22:51.484Z,18.02
2023-02-12T13:25:28.126Z,12.95
2023-02-12T13:27:58.456Z,11.65
2023-02-12T13:30:31.509Z,9.70
2023-02-12T13:33:08.181Z,10.00
2023-02-12T13:35:39.098Z,16.73
2023-02-12T13:38:08.695Z,13.55
2023-02-12T13:40:37.178Z,14.52
2023-02-12T13:43:18.940Z,14.48
2023-02-12T13:45:54.062Z,14.43
2023-02-12T13:48:49.233Z,8.45
2023-02-12T13:51:25.561Z,11.10
2023-02-12T13:54:07.678Z,8.82
2023-02-12T13:56:42.352Z,10.27
2023-02-12T13:59:53.801Z,13.52
2023-02-12T14:02:44.508Z,7.20
2023-02-12T14:05:34.827Z,8.85
2023-02-12T14:08:05.971Z,9.48
2023-02-12T14:10:37.547Z,12.30
2023-02-12T14:13:28.112Z,11.25
2023-02-12T14:15:58.825Z,13.05
2023-02-12T14:18:34.165Z,9.73
2023-02-12T14:21:41.698Z,9.27
2023-02-12T14:24:51.845Z,13.60
2023-02-12T14:27:37.377Z,9.35
2023-02-12T14:30:30.741Z,8.27
2023-02-12T14:33:18.739Z,10.93
2023-02-12T14:35:47.443Z,8.05
2023-02-12T14:39:01.286Z,7.60
2023-02-12T14:41:44.040Z,11.10
2023-02-12T14:44:47.356Z,12.75
2023-02-12T14:47:45.457Z,5.70
2023-02-12T14:50:19.044Z,7.70
2023-02-12T14:52:53.969Z,12.40
2023-02-12T14:55:26.109Z,7.68
2023-02-12T14:57:59.552Z,7.60
2023-02-12T15:03:06.574Z,7.75
2023-02-12T15:05:39.706Z,11.35
2023-02-12T15:08:15.083Z,9.95
2023-02-12T15:10:50.316Z,7.60
2023-02-12T15:13:29.510Z,7.53
2023-02-12T15:16:03.660Z,9.10
2023-02-12T15:18:43.922Z,6.85
2023-02-12T15:21:20.998Z,6.13
2023-02-12T15:23:49.644Z,9.35
2023-02-12T15:26:21.353Z,8.90
2023-02-12T15:28:51.710Z,9.63
2023-02-12T15:31:24.642Z,9.18
2023-02-12T15:33:54.509Z,5.57
2023-02-12T15:36:24.321Z,7.53
2023-02-12T15:38:54.774Z,7.88
2023-02-12T15:41:29.500Z,4.90
2023-02-12T15:43:57.617Z,9.43
2023-02-12T15:46:27.149Z,6.50
2023-02-12T15:48:56.333Z,7.03
2023-02-12T15:51:29.980Z,8.77
2023-02-12T15:54:00.642Z,7.38
2023-02-12T15:56:29.260Z,8.20
2023-02-12T15:59:00.125Z,6.80
2023-02-12T16:01:31.785Z,5.63
2023-02-12T16:04:01.051Z,7.53
2023-02-12T16:06:32.513Z,8.27
2023-02-12T16:09:04.771Z,5.55
2023-02-12T16:11:34.276Z,11.63
2023-02-12T16:14:05.453Z,7.25
2023-02-12T16:16:45.980Z,11.18
2023-02-12T16:19:20.228Z,9.25
2023-02-12T16:21:50.313Z,7.57
2023-02-12T16:24:28.083Z,7.25
2023-02-12T16:26:56.238Z,9.35
2023-02-12T16:29:24.375Z,11.93
2023-02-12T16:32:02.417Z,6.00
2023-02-12T16:34:36.526Z,8.45
2023-02-12T16:37:27.127Z,9.13
2023-02-12T16:40:22.404Z,8.07
2023-02-12T16:43:24.257Z,6.03
2023-02-12T16:45:53.321Z,7.35
2023-02-12T16:48:25.763Z,14.98
2023-02-12T16:50:58.776Z,7.85
2023-02-12T16:53:46.886Z,12.07
2023-02-12T16:56:18.134Z,10.35
2023-02-12T16:58:48.374Z,5.85
2023-02-12T17:01:19.252Z,9.80
2023-02-12T17:03:50.476Z,8.10
2023-02-12T17:06:20.314Z,7.03
2023-02-12T17:08:48.091Z,8.25
2023-02-12T17:11:17.732Z,6.40
2023-02-12T17:13:46.465Z,6.75
2023-02-12T17:16:29.477Z,10.15
2023-02-12T17:19:00.052Z,10.15
2023-02-12T17:21:30.655Z,9.32
2023-02-12T17:23:58.470Z,8.75
2023-02-12T17:26:26.381Z,11.63
2023-02-12T17:28:54.145Z,13.73
2023-02-12T17:31:23.870Z,14.48
2023-02-12T17:33:51.896Z,7.07
2023-02-12T17:36:21.113Z,8.95
2023-02-12T17:38:48.802Z,8.85
2023-02-12T17:41:16.624Z,10.35
2023-02-12T17:43:44.395Z,8.15
2023-02-12T17:46:14.122Z,8.98
2023-02-12T17:48:41.893Z,10.88
2023-02-12T17:51:11.787Z,6.15
2023-02-12T17:53:41.556Z,6.65
2023-02-12T17:56:12.279Z,7.55
2023-02-12T17:58:40.122Z,9.52
2023-02-12T18:01:09.501Z,6.05
2023-02-12T18:03:37.890Z,8.93
2023-02-12T18:06:06.894Z,10.80
2023-02-12T18:08:34.966Z,9.60
2023-02-12T18:11:07.570Z,14.38
2023-02-12T18:13:35.422Z,7.07
2023-02-12T18:16:07.168Z,6.68
2023-02-12T18:18:35.303Z,6.38
2023-02-12T18:21:03.148Z,7.72
2023-02-12T18:23:30.827Z,8.30
2023-02-12T18:25:58.631Z,7.88
2023-02-12T18:28:27.816Z,15.45
2023-02-12T18:30:59.704Z,18.83
2023-02-12T18:33:27.967Z,14.48
2023-02-12T18:36:00.122Z,13.38
2023-02-12T18:38:28.259Z,15.50
2023-02-12T18:40:56.368Z,16.88
2023-02-12T18:43:24.906Z,14.70
2023-02-12T18:45:55.206Z,14.93
2023-02-12T18:48:23.221Z,14.90
2023-02-12T18:50:53.112Z,12.95
2023-02-12T18:53:20.818Z,13.93
2023-02-12T18:55:48.639Z,16.75
2023-02-12T18:58:16.368Z,15.77
2023-02-12T19:00:44.115Z,15.82
2023-02-12T19:03:13.195Z,14.75
2023-02-12T19:05:40.984Z,15.95
2023-02-12T19:08:08.728Z,15.95
2023-02-12T19:10:39.696Z,12.30
2023-02-12T19:13:07.601Z,15.85
2023-02-12T19:15:35.371Z,13.50
2023-02-12T19:18:03.200Z,15.63
2023-02-12T19:20:33.691Z,15.90
2023-02-12T19:23:01.484Z,12.98
2023-02-12T19:25:29.248Z,13.75
2023-02-12T19:27:58.507Z,12.95
2023-02-12T19:30:26.267Z,12.30
2023-02-12T19:32:54.106Z,13.82
2023-02-12T19:35:21.907Z,9.65
2023-02-12T19:37:51.064Z,12.70
2023-02-12T19:40:18.947Z,13.48
2023-02-12T19:42:46.815Z,10.27
2023-02-12T19:45:16.160Z,11.95
2023-02-12T19:47:43.935Z,14.82
2023-02-12T19:50:11.960Z,12.98
2023-02-12T19:52:39.752Z,12.93
2023-02-12T19:55:09.414Z,15.50
2023-02-12T19:57:38.564Z,12.75
2023-02-12T20:00:07.763Z,13.85
2023-02-12T20:02:35.594Z,12.80
2023-02-12T20:05:03.360Z,10.52
2023-02-12T20:07:31.136Z,10.50
2023-02-12T20:09:59.716Z,10.18
2023-02-12T20:12:28.817Z,20.17
2023-02-12T20:15:00.968Z,13.07
2023-02-12T20:17:28.669Z,11.80
2023-02-12T20:19:56.831Z,11.13
2023-02-12T20:22:24.721Z,10.15
2023-02-12T20:24:53.606Z,10.60
2023-02-12T20:27:21.415Z,12.52
2023-02-12T20:29:51.089Z,8.07
2023-02-12T20:32:19.288Z,9.27
2023-02-12T20:34:51.106Z,13.35
2023-02-12T20:37:19.203Z,12.50
2023-02-12T20:39:48.046Z,13.35
2023-02-12T20:42:16.021Z,10.48
2023-02-12T20:44:44.191Z,10.65
2023-02-12T20:47:13.739Z,10.52
2023-02-12T20:49:42.901Z,11.70
2023-02-12T20:52:11.152Z,12.23
2023-02-12T20:54:40.087Z,12.70
2023-02-12T20:57:07.931Z,11.95
2023-02-12T20:59:35.773Z,11.23
2023-02-12T21:02:03.856Z,9.48
2023-02-12T21:04:32.939Z,15.25
2023-02-12T21:07:01.174Z,9.43
2023-02-12T21:09:29.429Z,14.02
2023-02-12T21:11:59.221Z,10.20
2023-02-12T21:14:27.270Z,10.95
2023-02-12T21:16:56.888Z,15.68
2023-02-12T21:19:26.586Z,13.23
2023-02-12T21:21:56.860Z,10.25
2023-02-12T21:24:28.144Z,11.50
2023-02-12T21:26:58.704Z,12.90
2023-02-12T21:29:29.191Z,14.40
2023-02-12T21:31:58.253Z,11.05
2023-02-12T21:34:27.026Z,11.02
2023-02-12T21:36:58.477Z,13.40
2023-02-12T21:39:28.850Z,12.25
2023-02-12T21:41:58.475Z,16.60
2023-02-12T21:44:27.354Z,15.23
2023-02-12T21:46:56.082Z,13.80
2023-02-12T21:49:27.310Z,15.02
2023-02-12T21:51:58.012Z,13.80
2023-02-12T21:54:25.744Z,16.63
2023-02-12T21:56:53.521Z,14.23
2023-02-12T21:59:21.292Z,10.35
2023-02-12T22:01:50.717Z,14.82
2023-02-12T22:04:19.453Z,14.23
2023-02-12T22:06:49.176Z,14.48
2023-02-12T22:09:20.996Z,12.10
2023-02-12T22:11:48.825Z,12.52
2023-02-12T22:14:18.421Z,11.93
2023-02-12T22:16:47.772Z,15.00
2023-02-12T22:19:16.277Z,14.30
2023-02-12T22:21:44.819Z,20.30
2023-02-12T22:24:15.307Z,12.23
2023-02-12T22:26:45.284Z,14.02
2023-02-12T22:29:15.398Z,18.42
2023-02-12T22:31:44.799Z,15.57
2023-02-12T22:34:14.681Z,12.05
2023-02-12T22:36:43.461Z,18.55
2023-02-12T22:39:12.861Z,14.27
2023-02-12T22:41:41.938Z,16.63
2023-02-12T22:44:13.099Z,13.98
2023-02-12T22:46:41.085Z,14.85
2023-02-12T22:49:08.982Z,12.02
2023-02-12T22:51:38.924Z,12.93
2023-02-12T22:54:07.295Z,14.70
2023-02-12T22:56:35.024Z,12.07
2023-02-12T22:59:03.281Z,15.48
2023-02-12T23:01:32.690Z,12.98
2023-02-12T23:04:00.580Z,15.93
2023-02-12T23:06:30.302Z,17.38
2023-02-12T23:09:00.784Z,16.23
2023-02-12T23:11:29.651Z,16.90
2023-02-12T23:13:58.028Z,14.00
2023-02-12T23:16:26.027Z,15.02
2023-02-12T23:18:57.442Z,14.93
2023-02-12T23:21:25.941Z,17.00
2023-02-12T23:23:53.728Z,12.95
2023-02-12T23:26:21.493Z,14.88
2023-02-12T23:28:49.516Z,13.95
2023-02-12T23:31:17.424Z,12.77
2023-02-12T23:33:45.227Z,11.38
2023-02-12T23:36:14.575Z,14.82
2023-02-12T23:38:42.332Z,11.68
2023-02-12T23:41:10.284Z,11.93
2023-02-12T23:43:38.174Z,13.25
2023-02-12T23:46:06.305Z,13.15
2023-02-12T23:48:34.073Z,10.23
2023-02-12T23:51:01.877Z,10.25
2023-02-12T23:53:30.963Z,14.73
2023-02-12T23:55:58.801Z,11.30
2023-02-12T23:58:26.523Z,8.57
